Česky Dansk Deutsch English Español Suomi Français Magyar Italiano Nederlands norsk Polski Português svenska Türkçe

 

Het Weer

Turku (Finland)

08:50, 11 augustus 2016 (GMT)

NWNNE
WE
SWSSE
Home            
Turku Pori Tampere / Pirkkala Mariehamn / Aland Island Helsinki-Vantaa Helsinki-Malmi Kardla Tallinn Halli Seinajoki-Ilmajok Ilmajoki Ahtari Kuressaare Utti Stockholm / Arlanda Parnu Uppsala Stockholm / Bromma Jyvaskyla Vaasa Kauhava Gavle / Sandviken Air Force Base Soderhamn

Om een weerknop op uw website of weblog te plaatsen, copieer onderstaande code en plak die in uw pagina. In het eerste vakje staat HTML-code, in het tweede vakje UBB-code.


Add to Google

Details

Wind speed:3 bf, 8 kn, 4.1 m/s, 9.2 miles/h, 14.8 km/h
Wind direction:S, 170° - WSW, 250°
Visibility:Greater than 10000 m, 10 km, 32800 ft, 6.2 miles
Clouds:Durchbrochene Bewölkung at 2000 ft, 610 m
Temperature:15°C, 59°F
Dew-point:10°C, 50°F
Atmospheric pressure:1005 hPa, 753.8 mmHg, 29.68 inHg, 0.992 atm
Relative humidity:72.0 %
METAR:EFTU 110850Z AUTO 21008KT 170V250 9999 BKN020 15/10 Q1005

Snelkoppelingen

Actuele weersinformatie van de hele wereld. Voeg locaties toe met het plus (+) symbool. Deze snelkoppelingen kunnen worden toegevoegd aan Google.

Lid van de Technetium groep

website free tracking
StatCounter NetStat W3C Validator

23-10-2020 01:58:43
astro.technetium.be money.technetium.be phote.technetium.be tafeltennistafel.technetium.be www.ligfiets.net